Terminal Aerodrome Forecast
Issued by NWS

Home | Current Version | Previous Version | Text Only | Print | Product List | Glossary On
Versions: 1 2 3 4 5 6 7 8 9 10 11 12 13 14 15 16 17 18
000
FTUS45 KABQ 150300 AAA
TAFTCC
TAF AMD
KTCC 150335Z 1504/1524 21010KT P6SM FEW040 SCT120
      TEMPO 1506/1508 BKN025
     FM150800 22007KT P6SM BKN025
      TEMPO 1510/1514 5SM BR OVC012
     FM151600 23009KT P6SM SCT035 BKN120
     FM151900 06010KT P6SM BKN050 BKN120=

USA.gov is the U.S. government's official web portal to all federal, state and local government web resources and services.